Taos Ski Valley, NM

7:26 PM MDT on May 05, 2015 (GMT -0600)
Canon | | Change Station
CLOSE
Current Station
Personal Weather Station
Location: Taos, NM
Elevation: 7001 ft
Nearby Weather Stations

Elev 7001 ft 36.39 °N, 105.56 °W | Updated 4 minutes ago

Overcast
Overcast
49.8 °F
Feels Like 48 °F
N
5.3
Wind Variable Wind from SW

Today
High -- | Low -- °F
--% Chance of Precip.
Yesterday
High -- | Low -- °F
Precip. -- in
6:04 AM 7:53 PM
Waning Gibbous, 96% visible
Pressure 29.91 in
Visibility 10.0 miles
Clouds Few 4200 ft
Few 6000 ft
Scattered Clouds 9000 ft
Windchill 48 °F
Dew Point 41 °F
Humidity 72%
Rainfall 0.47 in
Snow Depth Not available.
UV 0 out of 12
Pollen 3.40 out of 12
Air Quality Not available.
Flu Activity Local Activity
METAR KSKX 060115Z AUTO 21007KT 10SM FEW042 FEW060 SCT090 10/03 A2991 RMK AO1

More Conditions Fewer Conditions

Pressure 29.91 in
Visibility 10.0 miles
Clouds Few 4200 ft
Few 6000 ft
Scattered Clouds 9000 ft
Windchill 48 °F
Dew Point 41 °F
Humidity 72%
Rainfall 0.47 in
Snow Depth Not available.
UV 0 out of 12
Pollen 3.40 out of 12
Air Quality Not available.
Flu Activity Local Activity
METAR KSKX 060115Z AUTO 21007KT 10SM FEW042 FEW060 SCT090 10/03 A2991 RMK AO1

More Conditions Fewer Conditions

Nowcast | as of 6:00 PM MDT on May 5, 2015

Through 800 PM MDT...scattered showers and thunderstorms will continue over much of central and northern New Mexico through the evening hours. Additional rainfall amounts through 800 PM MDT will be generally less than a tenth of an inch...though any strong shower or thunderstorm could put down a quick quarter of an inch of rain. Pea size hail will be common with most thunderstorms. Elevations near and above 9500 feet may see snow mixed in with he heavier showers and thunderstorms.

×

10-Day Weather Forecast

Almanac

Astronomy

May. 05, 2015 Rise Set
Actual Time
Civil Twilight
Nautical Twilight
Astronomical Twilight
Moon
Length of Visible Light
Length of Day
Tomorrow will be .
, % of the Moon is Illuminated

Today's Extremes

State Highs State Lows

Community

WunderPhotos

Upload Photos

1,819,032 photos uploaded!

WunderBlogs® & News

Nearby

Air Quality

  Air Quality AQ Index Pollutant
Not available.

Snow Depth

Station Depth Elevation

Earthquake Activity

City Distance Mag. Time & Date
Minimum magnitude displayed is 2.5.

Coastal Water Temperatures

Place Temperature

Stations

Nearby Weather Stations

Station Location Temp. Windchill Dew Point Humidity Wind Precip. Elev Updated Type